Time;durP1;ratioP1;P1;durP2;ratioP2;P2;SDS_P1;SDS_P2;PMS_P1;PMS_P2;Temp;Humidity;BMP_temperature;BMP_pressure;BME280_temperature;BME280_humidity;BME280_pressure;Samples;Min_cycle;Max_cycle;Signal;HPM_P1;HPM_P2
2023/08/11 00:01:16;;;;;;;;;;;19.60;71.30;;;;;;5074326;28;19916;-75
2023/08/11 00:03:43;;;;;;;;;;;19.60;71.40;;;;;;5075557;28;19948;-75
2023/08/11 00:06:09;;;;;;;;;;;19.60;71.40;;;;;;5075494;28;19912;-75
2023/08/11 00:08:37;;;;;;;;;;;19.60;71.50;;;;;;5074073;28;19913;-75
2023/08/11 00:11:02;;;;;;;;;;;19.50;71.50;;;;;;5074057;28;19919;-75
2023/08/11 00:13:28;;;;;;;;;;;19.50;71.60;;;;;;5074049;28;19912;-74
2023/08/11 00:15:53;;;;;;;;;;;19.50;71.60;;;;;;5073502;28;19920;-74
2023/08/11 00:18:19;;;;;;;;;;;19.40;71.60;;;;;;5073925;28;19912;-74
2023/08/11 00:20:45;;;;;;;;;;;19.40;71.80;;;;;;5073704;28;20007;-78
2023/08/11 00:23:10;;;;;;;;;;;19.40;71.80;;;;;;5073441;28;19912;-79
2023/08/11 00:25:36;;;;;;;;;;;19.30;71.80;;;;;;5074603;28;20609;-78
2023/08/11 00:28:01;;;;;;;;;;;19.30;71.90;;;;;;5073289;28;19920;-78
2023/08/11 00:30:27;;;;;;;;;;;19.30;71.90;;;;;;5074724;28;20016;-77
2023/08/11 00:32:53;;;;;;;;;;;19.30;71.90;;;;;;5074398;28;19991;-78
2023/08/11 00:35:19;;;;;;;;;;;19.30;72.00;;;;;;5072988;28;19912;-78
2023/08/11 00:37:44;;;;;;;;;;;19.30;72.00;;;;;;5074519;28;19919;-77
2023/08/11 00:40:11;;;;;;;;;;;19.30;72.10;;;;;;5074487;28;19913;-78
2023/08/11 00:42:37;;;;;;;;;;;19.30;72.10;;;;;;5073097;28;19917;-78
2023/08/11 00:45:03;;;;;;;;;;;19.30;72.20;;;;;;5072979;28;19912;-78
2023/08/11 00:47:29;;;;;;;;;;;19.20;72.20;;;;;;5070222;28;19916;-78
2023/08/11 00:49:54;;;;;;;;;;;19.20;72.30;;;;;;5074221;28;19913;-78
2023/08/11 00:52:20;;;;;;;;;;;19.30;72.30;;;;;;5073014;28;20280;-78
2023/08/11 00:54:47;;;;;;;;;;;19.20;72.40;;;;;;5072780;28;20411;-78
2023/08/11 00:57:13;;;;;;;;;;;19.20;72.50;;;;;;5074111;28;19920;-78
2023/08/11 00:59:39;;;;;;;;;;;19.10;72.60;;;;;;5074012;28;19913;-78
2023/08/11 01:02:06;;;;;;;;;;;19.10;72.50;;;;;;5074603;28;19916;-75
2023/08/11 01:04:33;;;;;;;;;;;19.10;72.60;;;;;;5074351;28;20287;-74
2023/08/11 01:07:01;;;;;;;;;;;19.10;72.70;;;;;;5072933;28;19912;-74
2023/08/11 01:09:28;;;;;;;;;;;19.10;72.70;;;;;;5074280;28;19978;-74
2023/08/11 01:12:16;;;;;;;;;;;19.10;72.80;;;;;;5072978;28;19913;-75
2023/08/11 01:15:10;;;;;;;;;;;19.10;72.80;;;;;;5072795;28;19917;-74
2023/08/11 01:17:38;;;;;;;;;;;19.00;72.80;;;;;;5060971;28;19959;-75
2023/08/11 01:20:09;;;;;;;;;;;19.00;72.80;;;;;;5072609;28;19927;-74
2023/08/11 01:22:35;;;;;;;;;;;19.00;72.80;;;;;;5073797;28;19916;-74
2023/08/11 01:25:01;;;;;;;;;;;19.00;72.90;;;;;;5072457;28;19919;-74
2023/08/11 01:27:28;;;;;;;;;;;19.00;72.90;;;;;;5071829;28;19912;-74
2023/08/11 01:29:53;;;;;;;;;;;19.00;72.90;;;;;;5072505;28;19920;-75
2023/08/11 01:32:19;;;;;;;;;;;19.00;73.00;;;;;;5072375;28;19913;-75
2023/08/11 01:34:44;;;;;;;;;;;19.00;73.00;;;;;;5072472;28;19970;-75
2023/08/11 01:37:10;;;;;;;;;;;19.00;73.10;;;;;;5073545;28;19917;-74
2023/08/11 01:39:35;;;;;;;;;;;18.90;73.00;;;;;;5069516;28;19917;-76
2023/08/11 01:42:01;;;;;;;;;;;18.90;73.10;;;;;;5072098;28;19968;-74
2023/08/11 01:44:27;;;;;;;;;;;18.90;73.10;;;;;;5072175;28;20011;-75
2023/08/11 01:46:54;;;;;;;;;;;18.90;73.20;;;;;;5072055;28;20367;-74
2023/08/11 01:49:21;;;;;;;;;;;18.90;73.20;;;;;;5072299;28;19959;-75
2023/08/11 01:51:47;;;;;;;;;;;18.80;73.20;;;;;;5071914;28;19916;-75
2023/08/11 01:54:12;;;;;;;;;;;18.80;73.30;;;;;;5088640;28;20366;-75
2023/08/11 01:56:39;;;;;;;;;;;18.80;73.40;;;;;;5075511;28;19920;-75
2023/08/11 01:59:10;;;;;;;;;;;18.80;73.40;;;;;;5093428;28;19913;-75
2023/08/11 02:01:35;;;;;;;;;;;18.80;73.50;;;;;;5075314;28;19916;-75
2023/08/11 02:04:03;;;;;;;;;;;18.70;73.50;;;;;;5075169;28;19961;-75
2023/08/11 02:06:30;;;;;;;;;;;18.70;73.60;;;;;;5075330;28;20371;-76
2023/08/11 02:08:55;;;;;;;;;;;18.70;73.60;;;;;;5075284;28;20030;-75
2023/08/11 02:11:21;;;;;;;;;;;18.60;73.60;;;;;;5074946;28;19959;-79
2023/08/11 02:13:46;;;;;;;;;;;18.60;73.60;;;;;;5092961;28;19923;-78
2023/08/11 02:16:12;;;;;;;;;;;18.60;73.70;;;;;;5075147;28;20286;-78
2023/08/11 02:18:38;;;;;;;;;;;18.60;73.70;;;;;;5092772;28;19951;-78
2023/08/11 02:21:03;;;;;;;;;;;18.60;73.80;;;;;;5089737;28;19920;-76
2023/08/11 02:23:29;;;;;;;;;;;18.60;73.80;;;;;;5074714;28;19912;-78
2023/08/11 02:25:55;;;;;;;;;;;18.60;73.90;;;;;;5092872;28;20372;-78
2023/08/11 02:28:20;;;;;;;;;;;18.60;74.00;;;;;;5092743;28;19958;-78
2023/08/11 02:30:46;;;;;;;;;;;18.50;74.00;;;;;;5092763;28;20014;-79
2023/08/11 02:33:13;;;;;;;;;;;18.50;74.10;;;;;;5092641;28;19981;-78
2023/08/11 02:35:38;;;;;;;;;;;18.40;74.10;;;;;;5092550;28;20041;-78
2023/08/11 02:38:05;;;;;;;;;;;18.40;74.10;;;;;;5076642;28;19922;-78
2023/08/11 02:40:30;;;;;;;;;;;18.40;74.20;;;;;;5099230;28;19978;-78
2023/08/11 02:42:56;;;;;;;;;;;18.40;74.30;;;;;;5099700;28;19923;-78
2023/08/11 02:45:22;;;;;;;;;;;18.30;74.40;;;;;;5099311;28;20275;-79
2023/08/11 02:47:49;;;;;;;;;;;18.30;74.50;;;;;;5081377;28;20232;-78
2023/08/11 02:50:14;;;;;;;;;;;18.30;74.50;;;;;;5099309;28;19919;-78
2023/08/11 02:52:40;;;;;;;;;;;18.30;74.50;;;;;;5099090;28;19911;-78
2023/08/11 02:55:06;;;;;;;;;;;18.30;74.50;;;;;;5080940;28;19916;-77
2023/08/11 02:57:32;;;;;;;;;;;18.30;74.60;;;;;;5080889;28;19920;-77
2023/08/11 02:59:58;;;;;;;;;;;18.30;74.50;;;;;;5099154;28;19919;-77
2023/08/11 03:02:24;;;;;;;;;;;18.30;74.60;;;;;;5099177;28;20364;-78
2023/08/11 03:04:50;;;;;;;;;;;18.20;74.60;;;;;;5080354;28;20398;-78
2023/08/11 03:07:16;;;;;;;;;;;18.20;74.60;;;;;;5099039;28;19913;-78
2023/08/11 03:09:42;;;;;;;;;;;18.20;74.60;;;;;;5099036;28;19919;-77
2023/08/11 03:12:08;;;;;;;;;;;18.20;74.60;;;;;;5080797;28;20272;-78
2023/08/11 03:14:35;;;;;;;;;;;18.20;74.70;;;;;;5080909;28;19912;-77
2023/08/11 03:17:01;;;;;;;;;;;18.20;74.80;;;;;;5099080;28;19916;-76
2023/08/11 03:19:26;;;;;;;;;;;18.20;74.80;;;;;;5098998;28;20015;-78
2023/08/11 03:21:52;;;;;;;;;;;18.10;74.80;;;;;;5099875;28;19952;-83
2023/08/11 03:24:17;;;;;;;;;;;18.10;74.80;;;;;;5099882;28;19919;-83
2023/08/11 03:26:43;;;;;;;;;;;18.10;75.50;;;;;;5081447;28;19912;-83
2023/08/11 03:29:08;;;;;;;;;;;18.00;74.90;;;;;;5099668;28;20014;-84
2023/08/11 03:31:34;;;;;;;;;;;18.00;74.90;;;;;;5099845;28;20274;-84
2023/08/11 03:33:59;;;;;;;;;;;18.00;75.00;;;;;;5099470;28;19912;-83
2023/08/11 03:36:25;;;;;;;;;;;18.00;75.00;;;;;;5081250;28;19916;-84
2023/08/11 03:38:51;;;;;;;;;;;18.10;75.10;;;;;;5099555;28;19913;-83
2023/08/11 03:41:16;;;;;;;;;;;18.00;75.10;;;;;;5099526;28;19915;-84
2023/08/11 03:43:42;;;;;;;;;;;18.00;75.10;;;;;;5099648;28;20363;-84
2023/08/11 03:46:08;;;;;;;;;;;18.00;75.10;;;;;;5099203;28;19920;-83
2023/08/11 03:48:33;;;;;;;;;;;18.00;75.10;;;;;;5099504;28;19959;-83
2023/08/11 03:50:59;;;;;;;;;;;17.90;75.10;;;;;;5077913;28;19919;-83
2023/08/11 03:53:25;;;;;;;;;;;18.00;75.20;;;;;;5096122;28;19916;-83
2023/08/11 03:55:51;;;;;;;;;;;17.90;75.20;;;;;;5078134;28;19920;-84
2023/08/11 03:58:16;;;;;;;;;;;17.90;75.30;;;;;;5078322;28;19916;-83
2023/08/11 04:00:42;;;;;;;;;;;17.90;75.30;;;;;;5096212;28;20281;-83
2023/08/11 04:03:09;;;;;;;;;;;17.90;75.40;;;;;;5096085;28;19912;-84
2023/08/11 04:05:35;;;;;;;;;;;17.90;75.50;;;;;;5096186;28;19916;-84
2023/08/11 04:08:00;;;;;;;;;;;17.80;75.50;;;;;;5077737;28;20016;-83
2023/08/11 04:10:26;;;;;;;;;;;17.80;75.50;;;;;;5078121;28;20394;-84
2023/08/11 04:12:51;;;;;;;;;;;17.80;75.60;;;;;;5077992;28;20406;-83
2023/08/11 04:15:17;;;;;;;;;;;17.80;75.60;;;;;;5077682;28;20368;-84
2023/08/11 04:17:42;;;;;;;;;;;17.80;75.60;;;;;;5077579;28;19997;-84
2023/08/11 04:20:12;;;;;;;;;;;17.80;75.60;;;;;;5095655;28;19912;-84
2023/08/11 04:22:41;;;;;;;;;;;17.80;75.60;;;;;;5095716;28;20092;-84
2023/08/11 04:25:09;;;;;;;;;;;17.70;75.70;;;;;;5077573;28;20367;-84
2023/08/11 04:27:34;;;;;;;;;;;17.70;75.70;;;;;;5095693;28;19919;-84
2023/08/11 04:30:02;;;;;;;;;;;17.80;75.70;;;;;;5092384;28;19916;-78
2023/08/11 04:32:28;;;;;;;;;;;17.80;75.80;;;;;;5094744;28;20471;-78
2023/08/11 04:34:55;;;;;;;;;;;17.80;75.80;;;;;;5076554;28;19912;-77
2023/08/11 04:37:20;;;;;;;;;;;17.80;75.80;;;;;;5094548;28;19985;-77
2023/08/11 04:39:45;;;;;;;;;;;17.80;75.80;;;;;;5094646;28;19972;-77
2023/08/11 04:42:12;;;;;;;;;;;17.80;75.80;;;;;;5094524;28;20257;-77
2023/08/11 04:44:38;;;;;;;;;;;17.80;75.80;;;;;;5076322;28;20386;-77
2023/08/11 04:47:04;;;;;;;;;;;17.80;75.80;;;;;;5076430;28;19912;-77
2023/08/11 04:49:32;;;;;;;;;;;17.80;75.90;;;;;;5094515;28;20425;-77
2023/08/11 04:51:58;;;;;;;;;;;17.80;75.80;;;;;;5076711;28;20012;-77
2023/08/11 04:54:23;;;;;;;;;;;17.80;75.80;;;;;;5093950;28;19948;-77
2023/08/11 04:56:50;;;;;;;;;;;17.80;75.80;;;;;;5094217;28;19986;-77
2023/08/11 04:59:16;;;;;;;;;;;17.90;75.80;;;;;;5076103;28;20287;-78
2023/08/11 05:01:41;;;;;;;;;;;17.90;75.80;;;;;;5074663;28;19966;-77
2023/08/11 05:04:07;;;;;;;;;;;17.90;75.70;;;;;;5075895;28;20295;-78
2023/08/11 05:06:33;;;;;;;;;;;17.90;75.70;;;;;;5094121;28;19916;-77
2023/08/11 05:08:59;;;;;;;;;;;17.90;75.70;;;;;;5075824;28;19912;-77
2023/08/11 05:11:26;;;;;;;;;;;17.90;75.70;;;;;;5094121;28;20007;-78
2023/08/11 05:13:52;;;;;;;;;;;17.90;75.60;;;;;;5076000;28;19913;-78
2023/08/11 05:16:18;;;;;;;;;;;18.00;75.70;;;;;;5051119;28;19955;-78
2023/08/11 05:18:43;;;;;;;;;;;18.00;75.60;;;;;;5034348;28;20458;-78
2023/08/11 05:21:09;;;;;;;;;;;18.00;75.50;;;;;;5034583;28;20261;-77
2023/08/11 05:23:34;;;;;;;;;;;18.10;75.60;;;;;;5034241;28;19913;-77
2023/08/11 05:26:00;;;;;;;;;;;18.10;75.60;;;;;;5051009;28;20424;-77
2023/08/11 05:28:25;;;;;;;;;;;18.10;75.50;;;;;;5050983;28;20020;-77
2023/08/11 05:30:51;;;;;;;;;;;18.20;75.50;;;;;;5050933;28;19913;-76
2023/08/11 05:33:16;;;;;;;;;;;18.20;75.50;;;;;;5034125;28;20380;-77
2023/08/11 05:35:41;;;;;;;;;;;18.20;75.50;;;;;;5050868;28;19970;-77
2023/08/11 05:38:07;;;;;;;;;;;18.20;75.50;;;;;;5050780;28;19912;-78
2023/08/11 05:40:32;;;;;;;;;;;18.20;75.50;;;;;;5050939;28;19987;-78
2023/08/11 05:42:58;;;;;;;;;;;18.30;75.50;;;;;;5050415;28;20000;-77
2023/08/11 05:45:23;;;;;;;;;;;18.30;75.50;;;;;;5050760;28;20373;-77
2023/08/11 05:47:49;;;;;;;;;;;18.30;75.40;;;;;;5063552;28;19912;-77
2023/08/11 05:50:14;;;;;;;;;;;18.30;75.30;;;;;;5093287;28;19912;-77
2023/08/11 05:52:40;;;;;;;;;;;18.30;75.30;;;;;;5092950;28;19920;-77
2023/08/11 05:55:06;;;;;;;;;;;18.40;75.30;;;;;;5092911;28;19916;-77
2023/08/11 05:57:31;;;;;;;;;;;18.40;75.30;;;;;;5074644;28;19955;-78
2023/08/11 05:59:57;;;;;;;;;;;18.40;75.20;;;;;;5092882;28;19965;-77
2023/08/11 06:02:22;;;;;;;;;;;18.50;75.30;;;;;;5092956;28;19946;-77
2023/08/11 06:04:48;;;;;;;;;;;18.50;75.20;;;;;;5092935;28;19912;-77
2023/08/11 06:07:14;;;;;;;;;;;18.60;75.20;;;;;;5093202;28;19919;-78
2023/08/11 06:09:40;;;;;;;;;;;18.60;75.10;;;;;;5071648;28;20007;-78
2023/08/11 06:12:05;;;;;;;;;;;18.60;75.00;;;;;;5074786;28;19913;-77
2023/08/11 06:14:31;;;;;;;;;;;18.70;75.00;;;;;;5074142;28;19919;-77
2023/08/11 06:16:56;;;;;;;;;;;18.80;75.00;;;;;;5074583;28;19966;-77
2023/08/11 06:19:24;;;;;;;;;;;18.80;74.90;;;;;;5074628;28;20344;-77
2023/08/11 06:21:49;;;;;;;;;;;18.80;74.90;;;;;;5092591;28;19912;-78
2023/08/11 06:24:15;;;;;;;;;;;18.80;74.90;;;;;;5074373;28;19916;-77
2023/08/11 06:26:40;;;;;;;;;;;18.90;74.80;;;;;;5092595;28;19912;-77
2023/08/11 06:29:06;;;;;;;;;;;18.90;74.70;;;;;;5092678;28;19959;-77
2023/08/11 06:31:31;;;;;;;;;;;19.00;74.70;;;;;;5074467;28;20587;-77
2023/08/11 06:33:57;;;;;;;;;;;19.00;74.60;;;;;;5074437;28;19912;-77
2023/08/11 06:36:22;;;;;;;;;;;19.00;74.60;;;;;;5092565;28;20065;-76
2023/08/11 06:38:48;;;;;;;;;;;19.10;74.50;;;;;;5074209;28;19913;-77
2023/08/11 06:41:13;;;;;;;;;;;19.10;74.50;;;;;;5092306;28;19945;-76
2023/08/11 06:43:39;;;;;;;;;;;19.10;74.40;;;;;;5074183;28;19916;-77
2023/08/11 06:46:05;;;;;;;;;;;19.20;74.40;;;;;;5092253;28;19912;-78
2023/08/11 06:48:30;;;;;;;;;;;19.20;74.40;;;;;;5092449;28;20003;-77
2023/08/11 06:51:00;;;;;;;;;;;19.20;74.40;;;;;;5092455;28;19926;-74
2023/08/11 06:53:25;;;;;;;;;;;19.30;74.40;;;;;;5074792;28;19912;-74
2023/08/11 06:55:51;;;;;;;;;;;19.30;74.30;;;;;;5074901;28;19920;-75
2023/08/11 06:58:16;;;;;;;;;;;19.30;74.20;;;;;;5074791;28;19922;-75
2023/08/11 07:00:42;;;;;;;;;;;19.40;74.20;;;;;;5074707;28;20425;-74
2023/08/11 07:03:08;;;;;;;;;;;19.40;74.20;;;;;;5074538;28;19912;-75
2023/08/11 07:05:33;;;;;;;;;;;19.50;74.20;;;;;;5074993;28;19912;-75
2023/08/11 07:07:59;;;;;;;;;;;19.50;74.20;;;;;;5074727;28;19951;-74
2023/08/11 07:10:24;;;;;;;;;;;19.50;74.20;;;;;;5074689;28;20360;-75
2023/08/11 07:12:50;;;;;;;;;;;19.50;74.10;;;;;;5074381;28;19912;-73
2023/08/11 07:15:16;;;;;;;;;;;19.60;74.00;;;;;;5092972;28;20247;-74
2023/08/11 07:17:41;;;;;;;;;;;19.60;73.90;;;;;;5074215;28;20033;-74
2023/08/11 07:20:07;;;;;;;;;;;19.70;73.90;;;;;;5092735;28;19912;-74
2023/08/11 07:22:33;;;;;;;;;;;19.80;73.90;;;;;;5071507;28;19916;-74
2023/08/11 07:24:58;;;;;;;;;;;19.80;73.80;;;;;;5075312;28;19919;-73
2023/08/11 07:27:24;;;;;;;;;;;19.90;73.70;;;;;;5078153;28;19916;-74
2023/08/11 07:29:51;;;;;;;;;;;19.90;73.70;;;;;;5096633;28;19959;-74
2023/08/11 07:32:22;;;;;;;;;;;19.90;73.60;;;;;;5078597;28;19922;-74
2023/08/11 07:34:48;;;;;;;;;;;20.00;73.50;;;;;;5078055;28;19912;-74
2023/08/11 07:37:13;;;;;;;;;;;20.10;73.50;;;;;;5077883;28;19978;-74
2023/08/11 07:39:39;;;;;;;;;;;20.20;73.30;;;;;;5078159;28;20317;-74
2023/08/11 07:42:05;;;;;;;;;;;20.20;73.20;;;;;;5078044;28;19912;-74
2023/08/11 07:44:31;;;;;;;;;;;20.20;73.80;;;;;;5078045;28;19951;-74
2023/08/11 07:46:57;;;;;;;;;;;20.30;73.10;;;;;;5073346;28;19924;-75
2023/08/11 07:49:23;;;;;;;;;;;20.40;73.10;;;;;;5077922;28;19912;-74
2023/08/11 07:51:49;;;;;;;;;;;20.40;73.00;;;;;;5077911;28;19966;-74
2023/08/11 07:54:16;;;;;;;;;;;20.40;72.90;;;;;;5077757;28;20398;-75
2023/08/11 07:56:43;;;;;;;;;;;20.50;72.90;;;;;;5077686;28;20003;-74
2023/08/11 07:59:08;;;;;;;;;;;20.50;72.80;;;;;;5075008;28;20367;-74
2023/08/11 08:01:35;;;;;;;;;;;20.60;72.80;;;;;;5096414;28;19912;-76
2023/08/11 08:04:01;;;;;;;;;;;20.60;73.40;;;;;;5077226;28;19912;-78
2023/08/11 08:06:26;;;;;;;;;;;20.70;72.70;;;;;;5095378;28;19916;-78
2023/08/11 08:08:52;;;;;;;;;;;20.80;72.70;;;;;;5077051;28;19997;-76
2023/08/11 08:11:18;;;;;;;;;;;20.90;72.60;;;;;;5094955;28;19958;-77
2023/08/11 08:13:43;;;;;;;;;;;20.90;72.50;;;;;;5094850;28;20280;-77
2023/08/11 08:16:08;;;;;;;;;;;21.00;72.40;;;;;;5094980;28;19923;-77
2023/08/11 08:18:34;;;;;;;;;;;21.10;72.40;;;;;;5094757;28;19960;-77
2023/08/11 08:21:00;;;;;;;;;;;21.10;72.20;;;;;;5094983;28;20351;-78
2023/08/11 08:23:25;;;;;;;;;;;21.20;72.10;;;;;;5076524;28;19919;-77
2023/08/11 08:25:51;;;;;;;;;;;21.30;72.70;;;;;;5076714;28;19912;-78
2023/08/11 08:28:20;;;;;;;;;;;21.40;72.00;;;;;;5076508;28;20383;-78
2023/08/11 08:30:46;;;;;;;;;;;21.40;71.90;;;;;;5094574;28;19912;-77
2023/08/11 08:33:11;;;;;;;;;;;21.50;71.80;;;;;;5094570;28;19920;-76
2023/08/11 08:35:37;;;;;;;;;;;21.60;71.80;;;;;;5076070;28;19998;-78
2023/08/11 08:38:02;;;;;;;;;;;21.70;71.70;;;;;;5094852;28;20472;-78
2023/08/11 08:40:28;;;;;;;;;;;21.70;71.50;;;;;;5032587;28;19935;-78
2023/08/11 08:42:53;;;;;;;;;;;21.90;71.50;;;;;;5015844;28;20341;-77
2023/08/11 08:45:20;;;;;;;;;;;21.90;71.40;;;;;;5033018;28;19948;-80
2023/08/11 08:47:48;;;;;;;;;;;22.00;71.40;;;;;;5032538;28;20389;-79
2023/08/11 08:50:14;;;;;;;;;;;22.10;71.30;;;;;;5015500;28;20332;-77
2023/08/11 08:52:39;;;;;;;;;;;22.20;71.20;;;;;;5014931;28;19917;-77
2023/08/11 08:55:05;;;;;;;;;;;22.20;71.10;;;;;;5031616;28;19917;-76
2023/08/11 08:57:31;;;;;;;;;;;22.30;71.00;;;;;;5031618;28;20435;-76
2023/08/11 08:59:56;;;;;;;;;;;22.50;70.90;;;;;;5015217;28;19913;-76
2023/08/11 09:02:27;;;;;;;;;;;22.50;70.80;;;;;;5031571;28;20015;-77
2023/08/11 09:04:53;;;;;;;;;;;22.60;70.70;;;;;;5031452;28;20376;-76
2023/08/11 09:07:19;;;;;;;;;;;22.60;70.70;;;;;;5014831;28;19913;-76
2023/08/11 09:09:45;;;;;;;;;;;22.70;70.70;;;;;;5031414;28;19920;-79
2023/08/11 09:12:10;;;;;;;;;;;22.80;70.60;;;;;;5075077;28;19900;-82
2023/08/11 09:14:37;;;;;;;;;;;22.90;70.50;;;;;;5087582;28;20302;-81
2023/08/11 09:17:02;;;;;;;;;;;23.00;70.40;;;;;;5085785;28;19916;-82
2023/08/11 09:19:28;;;;;;;;;;;23.10;70.30;;;;;;5085966;28;19920;-82
2023/08/11 09:21:54;;;;;;;;;;;23.20;70.20;;;;;;5081322;28;19909;-82
2023/08/11 09:24:19;;;;;;;;;;;23.20;70.10;;;;;;5079157;28;20369;-83
2023/08/11 09:26:46;;;;;;;;;;;23.30;70.10;;;;;;5075646;28;19908;-83
2023/08/11 09:29:12;;;;;;;;;;;23.40;70.00;;;;;;5079346;28;19909;-86
2023/08/11 09:31:39;;;;;;;;;;;23.50;69.90;;;;;;5063075;28;20390;-83
2023/08/11 09:34:16;;;;;;;;;;;23.60;69.80;;;;;;5061332;28;19915;-83
2023/08/11 09:36:42;;;;;;;;;;;23.60;69.70;;;;;;5067529;28;19935;-84
2023/08/11 09:39:08;;;;;;;;;;;23.70;69.60;;;;;;5064845;28;19909;-82
2023/08/11 09:41:47;;;;;;;;;;;23.80;69.50;;;;;;5059357;28;20597;-88
2023/08/11 09:44:16;;;;;;;;;;;23.80;69.40;;;;;;5057854;28;19926;-87
2023/08/11 09:46:42;;;;;;;;;;;23.90;69.90;;;;;;5074867;28;19909;-86
2023/08/11 09:49:08;;;;;;;;;;;24.00;69.20;;;;;;5059206;28;19982;-84
2023/08/11 09:51:35;;;;;;;;;;;24.10;69.00;;;;;;5083817;28;19908;-80
2023/08/11 09:54:07;;;;;;;;;;;24.20;68.80;;;;;;5062308;28;20410;-84
2023/08/11 09:56:37;;;;;;;;;;;24.40;68.60;;;;;;5069818;28;19984;-82
2023/08/11 09:59:10;;;;;;;;;;;24.50;68.40;;;;;;5080714;28;19908;-80
2023/08/11 10:01:36;;;;;;;;;;;24.70;68.10;;;;;;5073204;28;20014;-78
2023/08/11 10:04:10;;;;;;;;;;;24.80;67.80;;;;;;5073107;28;19952;-80
2023/08/11 10:06:42;;;;;;;;;;;24.80;67.70;;;;;;5074939;28;19909;-79
2023/08/11 10:09:11;;;;;;;;;;;24.90;67.60;;;;;;5073401;28;19951;-78
2023/08/11 10:11:36;;;;;;;;;;;25.00;67.50;;;;;;5074220;28;19913;-81
2023/08/11 10:14:03;;;;;;;;;;;25.10;67.40;;;;;;5071952;28;19933;-80
2023/08/11 10:16:29;;;;;;;;;;;25.20;67.20;;;;;;5072478;28;19913;-78
2023/08/11 10:18:56;;;;;;;;;;;25.40;67.10;;;;;;5072252;28;19909;-79
2023/08/11 10:21:22;;;;;;;;;;;25.50;66.90;;;;;;5072531;28;19931;-65
2023/08/11 10:23:47;;;;;;;;;;;25.60;66.60;;;;;;5070997;28;20336;-65
2023/08/11 10:26:13;;;;;;;;;;;25.60;66.50;;;;;;5072167;28;19908;-68
2023/08/11 10:28:38;;;;;;;;;;;25.60;66.30;;;;;;5070818;28;19909;-67
2023/08/11 10:31:04;;;;;;;;;;;25.60;66.30;;;;;;5070296;28;19951;-68
2023/08/11 10:33:30;;;;;;;;;;;25.60;66.20;;;;;;5072220;28;20415;-66
2023/08/11 10:35:57;;;;;;;;;;;25.60;66.00;;;;;;5071613;28;20007;-74
2023/08/11 10:38:30;;;;;;;;;;;25.70;65.80;;;;;;5073345;28;20299;-73
2023/08/11 10:40:59;;;;;;;;;;;25.70;65.70;;;;;;5073018;28;19954;-75
2023/08/11 10:43:40;;;;;;;;;;;25.70;65.20;;;;;;5072935;28;20414;-74
2023/08/11 10:46:21;;;;;;;;;;;25.70;65.30;;;;;;5073049;28;19915;-75
2023/08/11 10:48:49;;;;;;;;;;;25.70;65.20;;;;;;5071555;28;19931;-75
2023/08/11 10:51:25;;;;;;;;;;;25.70;64.80;;;;;;5071613;28;20368;-75
2023/08/11 10:53:50;;;;;;;;;;;25.80;64.80;;;;;;5071766;28;19924;-77
2023/08/11 10:56:25;;;;;;;;;;;25.90;64.80;;;;;;5073008;28;19920;-76
2023/08/11 10:58:51;;;;;;;;;;;25.90;64.80;;;;;;5074193;28;19913;-75
2023/08/11 11:01:17;;;;;;;;;;;26.00;64.60;;;;;;5077552;28;19913;-75
2023/08/11 11:03:42;;;;;;;;;;;26.00;64.40;;;;;;5076734;28;19908;-75
2023/08/11 11:06:08;;;;;;;;;;;26.00;64.50;;;;;;5076657;28;20013;-76
2023/08/11 11:08:34;;;;;;;;;;;26.10;64.50;;;;;;5077958;28;19908;-73
2023/08/11 11:10:59;;;;;;;;;;;26.20;64.50;;;;;;5078235;28;19908;-76
2023/08/11 11:13:25;;;;;;;;;;;26.30;64.30;;;;;;5078098;28;20607;-75
2023/08/11 11:15:50;;;;;;;;;;;26.40;64.00;;;;;;5079624;28;19923;-75
2023/08/11 11:18:16;;;;;;;;;;;26.50;64.00;;;;;;5078430;28;19920;-76
2023/08/11 11:20:41;;;;;;;;;;;26.50;63.70;;;;;;5078378;28;19931;-75
2023/08/11 11:23:09;;;;;;;;;;;26.60;63.60;;;;;;5079281;28;20287;-71
2023/08/11 11:25:35;;;;;;;;;;;26.70;63.50;;;;;;5076146;28;19913;-76
2023/08/11 11:28:00;;;;;;;;;;;26.80;63.20;;;;;;5078736;28;19931;-77
2023/08/11 11:30:26;;;;;;;;;;;26.80;63.20;;;;;;5079548;28;19912;-74
2023/08/11 11:32:52;;;;;;;;;;;26.80;63.20;;;;;;5093353;28;19946;-78
2023/08/11 11:35:18;;;;;;;;;;;26.90;63.30;;;;;;5099495;28;19901;-79
2023/08/11 11:37:46;;;;;;;;;;;26.90;63.20;;;;;;5098700;28;19905;-80
2023/08/11 11:40:12;;;;;;;;;;;27.00;63.20;;;;;;5096850;28;19960;-79
2023/08/11 11:42:37;;;;;;;;;;;27.10;63.00;;;;;;5097872;28;19935;-77
2023/08/11 11:45:03;;;;;;;;;;;27.10;63.00;;;;;;5091422;28;19901;-78
2023/08/11 11:47:30;;;;;;;;;;;27.20;62.90;;;;;;5094311;28;19903;-77
2023/08/11 11:49:57;;;;;;;;;;;27.30;62.80;;;;;;5094812;28;19913;-77
2023/08/11 11:52:22;;;;;;;;;;;27.30;62.50;;;;;;5096502;28;19900;-78
2023/08/11 11:54:51;;;;;;;;;;;27.30;62.10;;;;;;5113800;28;19923;-76
2023/08/11 11:57:19;;;;;;;;;;;27.40;62.30;;;;;;5099258;28;20466;-77
2023/08/11 11:59:48;;;;;;;;;;;27.50;62.30;;;;;;5117252;28;19919;-77
2023/08/11 12:02:14;;;;;;;;;;;27.50;61.90;;;;;;5073729;28;19909;-74
2023/08/11 12:04:43;;;;;;;;;;;27.60;61.90;;;;;;5070593;28;19920;-74
2023/08/11 12:07:09;;;;;;;;;;;27.60;62.00;;;;;;5071934;28;20068;-76
2023/08/11 12:09:50;;;;;;;;;;;27.70;61.90;;;;;;5054141;28;19909;-76
2023/08/11 12:12:16;;;;;;;;;;;27.80;61.60;;;;;;5063217;28;20260;-76
2023/08/11 12:14:42;;;;;;;;;;;27.90;61.50;;;;;;5045365;28;20408;-76
2023/08/11 12:17:08;;;;;;;;;;;27.90;61.10;;;;;;5048301;28;20019;-77
2023/08/11 12:19:33;;;;;;;;;;;27.90;60.50;;;;;;5065662;28;19909;-77
2023/08/11 12:22:00;;;;;;;;;;;28.00;60.80;;;;;;5048633;28;19908;-80
2023/08/11 12:24:27;;;;;;;;;;;28.00;60.70;;;;;;5047483;28;20372;-78
2023/08/11 12:26:52;;;;;;;;;;;28.10;60.80;;;;;;5047665;28;19943;-77
2023/08/11 12:29:18;;;;;;;;;;;28.20;60.70;;;;;;5070228;28;19917;-77
2023/08/11 12:31:43;;;;;;;;;;;28.30;60.50;;;;;;5068390;28;20412;-77
2023/08/11 12:34:09;;;;;;;;;;;28.40;60.60;;;;;;5106251;28;19908;-76
2023/08/11 12:36:34;;;;;;;;;;;28.50;60.60;;;;;;5111216;28;19912;-77
2023/08/11 12:39:00;;;;;;;;;;;28.60;60.50;;;;;;5110192;28;19961;-76
2023/08/11 12:41:25;;;;;;;;;;;28.70;60.50;;;;;;5088959;28;19915;-81
2023/08/11 12:43:51;;;;;;;;;;;28.70;60.30;;;;;;5095382;28;19908;-77
2023/08/11 12:46:16;;;;;;;;;;;28.70;60.30;;;;;;5108008;28;19912;-81
2023/08/11 12:48:42;;;;;;;;;;;28.80;60.20;;;;;;5086921;28;19956;-79
2023/08/11 12:51:07;;;;;;;;;;;28.90;60.10;;;;;;5109677;28;19912;-82
2023/08/11 12:53:33;;;;;;;;;;;29.00;60.00;;;;;;5091627;28;19916;-81
2023/08/11 12:55:58;;;;;;;;;;;29.10;60.00;;;;;;5105745;28;19923;-82
2023/08/11 12:58:24;;;;;;;;;;;29.10;59.70;;;;;;5104956;28;20387;-81
2023/08/11 13:00:51;;;;;;;;;;;29.10;59.50;;;;;;5105320;28;19914;-81
2023/08/11 13:03:16;;;;;;;;;;;29.10;59.10;;;;;;5106350;28;20263;-80
2023/08/11 13:05:41;;;;;;;;;;;29.10;59.20;;;;;;5084636;28;19908;-80
2023/08/11 13:08:07;;;;;;;;;;;29.20;59.30;;;;;;5087053;28;19940;-80
2023/08/11 13:10:33;;;;;;;;;;;29.30;59.40;;;;;;5087618;28;19908;-80
2023/08/11 13:12:58;;;;;;;;;;;29.40;59.10;;;;;;5101508;28;19957;-79
2023/08/11 13:15:23;;;;;;;;;;;29.40;59.00;;;;;;5098624;28;20443;-80
2023/08/11 13:17:49;;;;;;;;;;;29.50;59.10;;;;;;5101663;28;19938;-80
2023/08/11 13:20:15;;;;;;;;;;;29.60;59.10;;;;;;5099477;28;19984;-80
2023/08/11 13:22:40;;;;;;;;;;;29.70;58.90;;;;;;5098194;28;19903;-77
2023/08/11 13:25:06;;;;;;;;;;;29.60;58.80;;;;;;5098510;28;19908;-79
2023/08/11 13:27:32;;;;;;;;;;;29.60;58.70;;;;;;5080576;28;19975;-76
2023/08/11 13:29:58;;;;;;;;;;;29.50;58.70;;;;;;5100960;28;19909;-78
2023/08/11 13:32:23;;;;;;;;;;;29.40;58.90;;;;;;5079629;28;20003;-80
2023/08/11 13:34:48;;;;;;;;;;;29.30;59.10;;;;;;5099925;28;19908;-79
2023/08/11 13:37:14;;;;;;;;;;;29.20;59.30;;;;;;5082073;28;19912;-82
2023/08/11 13:39:39;;;;;;;;;;;29.20;59.40;;;;;;5098344;28;19908;-80
2023/08/11 13:42:05;;;;;;;;;;;29.10;59.30;;;;;;5079157;28;20291;-80
2023/08/11 13:44:31;;;;;;;;;;;29.00;59.10;;;;;;5078596;28;19911;-79
2023/08/11 13:46:58;;;;;;;;;;;28.90;59.40;;;;;;5097209;28;20017;-80
2023/08/11 13:49:26;;;;;;;;;;;28.90;59.10;;;;;;5098118;28;19908;-80
2023/08/11 13:51:51;;;;;;;;;;;28.90;59.10;;;;;;5079475;28;19973;-77
2023/08/11 13:54:17;;;;;;;;;;;28.90;59.30;;;;;;5074961;28;19947;-75
2023/08/11 13:56:42;;;;;;;;;;;29.00;59.30;;;;;;5093018;28;20010;-75
2023/08/11 13:59:08;;;;;;;;;;;29.10;59.30;;;;;;5093116;28;19919;-76
2023/08/11 14:01:34;;;;;;;;;;;29.20;59.20;;;;;;5075107;28;19908;-76
2023/08/11 14:04:00;;;;;;;;;;;29.30;59.10;;;;;;5092910;28;20396;-76
2023/08/11 14:06:25;;;;;;;;;;;29.40;58.90;;;;;;5092916;28;19915;-77
2023/08/11 14:08:51;;;;;;;;;;;29.50;58.90;;;;;;5074616;28;20368;-75
2023/08/11 14:11:20;;;;;;;;;;;29.60;58.70;;;;;;5092597;28;19919;-75